American Star — WDD7311 — position and weather

sailwx.info

Track history (hours):
 
Tides and Currents Weather Stations Pressure Air Temp Water Temp Dewpoint Dewpoint Depression Visibility Wind Speed Wind Dir Waves Ship Positions

American Star

Owner: American Cruise Lines, Inc, Delmar, DE. More information available from US FCC via Universal Licensing System and Coast Guard Vessel Documentation Center.

Last reported at 2015-Jul-28 10:33 UTC. Time now 2015-Jul-28 17:48 UTC.
Position N 41°27' W 070°36'.

Length 60 m; draft 2.1 m.

Type: Ship (hazmat cat C). MMSI: 367184740.

Date/timePositionNaut miles runAvg speedWind from/ knotsBaromVisibWave heightAir tempDewpointWater temp
2015-Jul-28 10:33N 41°27' W 070°36'0 0.0
2015-Jul-28 09:33N 41°27' W 070°36'0 0.0
2015-Jul-28 08:27N 41°27' W 070°36'0 0.0
2015-Jul-28 07:33N 41°27' W 070°36'0 0.0
2015-Jul-28 06:21N 41°27' W 070°36'0 0.0
2015-Jul-28 05:15N 41°27' W 070°36'0 0.0
2015-Jul-28 04:33N 41°27' W 070°36'0 0.0
2015-Jul-28 03:06N 41°27' W 070°36'0 0.0
2015-Jul-28 02:33N 41°27' W 070°36'0 0.0
2015-Jul-28 01:33N 41°27' W 070°36'0 0.0
2015-Jul-28 00:27N 41°27' W 070°36'4 4.7
2015-Jul-27 23:33N 41°28' W 070°30'8 7.6
2015-Jul-27 22:33N 41°27' W 070°20'10 9.4
2015-Jul-27 21:33N 41°23' W 070°09'6 6.1
2015-Jul-27 20:31N 41°17' W 070°05'0 0.0
2015-Jul-27 19:31N 41°17' W 070°05'0 0.0
2015-Jul-27 18:13N 41°17' W 070°05'0 0.0
2015-Jul-27 16:28N 41°17' W 070°05'0 0.0
2015-Jul-27 15:25N 41°17' W 070°05'0 0.0
2015-Jul-27 14:31N 41°17' W 070°05'0 0.0
2015-Jul-27 13:19N 41°17' W 070°05'0 0.0
2015-Jul-27 12:31N 41°17' W 070°05'59 1.4
2015-Jul-25 18:33N 41°39' W 071°19'8 8.3
2015-Jul-25 17:34N 41°47' W 071°23'2 0.1
2015-Jul-24 22:29N 41°48' W 071°24'1010.7
2015-Jul-24 21:34N 41°39' W 071°19'2 1.6
2015-Jul-24 20:27N 41°40' W 071°16'0 0.0
2015-Jul-24 19:33N 41°40' W 071°16'0 0.0
2015-Jul-24 18:33N 41°40' W 071°16'0 0.0
2015-Jul-24 17:33N 41°40' W 071°16'0 0.0
2015-Jul-24 16:33N 41°40' W 071°16'0 0.0
2015-Jul-24 15:33N 41°40' W 071°16'2 1.8
2015-Jul-24 14:33N 41°38' W 071°16'10 4.2
2015-Jul-24 12:15N 41°29' W 071°20'0 0.0
2015-Jul-24 11:33N 41°29' W 071°20'0 0.0
2015-Jul-24 10:33N 41°29' W 071°20'0 0.0
2015-Jul-24 09:30N 41°29' W 071°20'0 0.0
2015-Jul-24 08:33N 41°29' W 071°20'0 0.0
2015-Jul-24 07:33N 41°29' W 071°20'0 0.0
2015-Jul-24 06:33N 41°29' W 071°20'0 0.0
2015-Jul-24 05:33N 41°29' W 071°20'0 0.0
2015-Jul-24 04:27N 41°29' W 071°20'0 0.0
2015-Jul-24 03:33N 41°29' W 071°20'0 0.0
2015-Jul-24 02:33N 41°29' W 071°20'0 0.0
2015-Jul-24 01:33N 41°29' W 071°20'0 0.0
2015-Jul-24 00:33N 41°29' W 071°20'0 0.0
2015-Jul-23 23:33N 41°29' W 071°20'0 0.0
2015-Jul-23 22:33N 41°29' W 071°20'0 0.0
2015-Jul-23 21:33N 41°29' W 071°20'0 0.0
2015-Jul-23 20:33N 41°29' W 071°20'0 0.0
2015-Jul-23 19:30N 41°29' W 071°20'0 0.0
2015-Jul-23 18:33N 41°29' W 071°20'0 0.0
2015-Jul-23 17:33N 41°29' W 071°20'0 0.0
2015-Jul-23 16:33N 41°29' W 071°20'0 0.0
2015-Jul-23 15:33N 41°29' W 071°20'0 0.0
2015-Jul-23 14:33N 41°29' W 071°20'0 0.0
2015-Jul-23 13:18N 41°29' W 071°20'0 0.0
2015-Jul-23 12:33N 41°29' W 071°20'6 6.0
2015-Jul-23 11:33N 41°24' W 071°25'1010.3
2015-Jul-23 10:33N 41°16' W 071°34'5 5.0
2015-Jul-23 09:33N 41°11' W 071°35'0 0.0
2015-Jul-23 08:33N 41°11' W 071°35'0 0.0
2015-Jul-23 07:33N 41°11' W 071°35'0 0.0
2015-Jul-23 06:33N 41°11' W 071°35'0 0.0
2015-Jul-23 05:34N 41°11' W 071°35'0 0.0
2015-Jul-23 04:34N 41°11' W 071°35'0 0.0
2015-Jul-23 03:33N 41°11' W 071°35'0 0.0
2015-Jul-23 02:34N 41°11' W 071°35'0 0.0
2015-Jul-23 01:33N 41°11' W 071°35'0 0.0
2015-Jul-23 00:33N 41°11' W 071°35'0 0.0
2015-Jul-22 23:33N 41°11' W 071°35'0 0.0
2015-Jul-22 22:33N 41°11' W 071°35'0 0.0
2015-Jul-22 21:33N 41°11' W 071°35'0 0.0
2015-Jul-22 20:33N 41°11' W 071°35'0 0.0
2015-Jul-22 19:33N 41°11' W 071°35'0 0.0
2015-Jul-22 18:33N 41°11' W 071°35'0 0.0
2015-Jul-22 17:33N 41°11' W 071°35'0 0.0
2015-Jul-22 16:33N 41°11' W 071°35'0 0.0
2015-Jul-22 15:33N 41°11' W 071°35'4 4.4
2015-Jul-22 14:34N 41°15' W 071°35'8 8.4
2015-Jul-22 13:33N 41°17' W 071°24'9 8.8
2015-Jul-22 12:33N 41°19' W 071°12'9 8.7
2015-Jul-22 11:34N 41°21' W 071°01'8 7.9
2015-Jul-22 10:33N 41°24' W 070°51'11 9.2
2015-Jul-22 09:23N 41°29' W 070°39'3 0.9
2015-Jul-22 06:13N 41°27' W 070°36'0 0.0
2015-Jul-22 05:33N 41°27' W 070°36'0 0.0
2015-Jul-22 02:33N 41°27' W 070°36'0 0.0
2015-Jul-22 01:22N 41°27' W 070°36'0 0.0
2015-Jul-22 00:33N 41°27' W 070°36'5 5.4
2015-Jul-21 23:34N 41°28' W 070°29'9 8.3
2015-Jul-21 22:30N 41°27' W 070°17'1010.1
2015-Jul-21 21:34N 41°21' W 070°08'4 3.7
2015-Jul-21 20:32N 41°17' W 070°05'0 0.0
2015-Jul-21 19:32N 41°17' W 070°05'0 0.0
2015-Jul-21 18:29N 41°17' W 070°05'0 0.0
2015-Jul-21 17:32N 41°17' W 070°05'0 0.0
2015-Jul-21 16:32N 41°17' W 070°05'0 0.0
2015-Jul-21 15:32N 41°17' W 070°05'0 0.0
2015-Jul-21 14:32N 41°17' W 070°05'0 0.0
2015-Jul-21 13:32N 41°17' W 070°05'0 0.0
2015-Jul-21 12:33N 41°17' W 070°05'8 8.3
2015-Jul-21 11:33N 41°25' W 070°11'1010.4
2015-Jul-21 10:33N 41°28' W 070°24'9 8.8
2015-Jul-21 09:33N 41°27' W 070°36'0 0.3
2015-Jul-21 08:31N 41°27' W 070°36'0 0.0
2015-Jul-21 07:31N 41°27' W 070°36'0 0.0
2015-Jul-21 06:31N 41°27' W 070°36'0 0.0
2015-Jul-21 05:31N 41°27' W 070°36'0 0.0
2015-Jul-21 04:31N 41°27' W 070°36'0 0.0
2015-Jul-21 01:28N 41°27' W 070°36'0 0.0
2015-Jul-21 00:31N 41°27' W 070°36'0 0.0
2015-Jul-20 23:28N 41°27' W 070°36'0 0.0
2015-Jul-20 13:31N 41°27' W 070°36'0 0.0
2015-Jul-20 12:33N 41°27' W 070°36'17 0.5
2015-Jul-18 23:33N 41°37' W 070°54'7 7.1
2015-Jul-18 22:33N 41°30' W 070°53'9 8.3
2015-Jul-18 21:32N 41°26' W 071°02'8 8.2
2015-Jul-18 20:33N 41°27' W 071°13'9 8.9
2015-Jul-18 19:33N 41°36' W 071°13'4 4.2
2015-Jul-18 18:33N 41°38' W 071°18'9 8.6
2015-Jul-18 17:33N 41°46' W 071°23'3 1.4
2015-Jul-18 15:08N 41°49' W 071°24'0 0.0
2015-Jul-18 14:26N 41°49' W 071°24'0 0.0
2015-Jul-18 13:32N 41°49' W 071°24'0 0.0
2015-Jul-18 12:29N 41°49' W 071°24'0 0.0
2015-Jul-18 11:32N 41°49' W 071°24'  
Track history (hours):
 
Tides and Currents Weather Stations Pressure Air Temp Water Temp Dewpoint Dewpoint Depression Visibility Wind Speed Wind Dir Waves Ship Positions

American Star

Owner: American Cruise Lines, Inc, Delmar, DE. More information available from US FCC via Universal Licensing System and Coast Guard Vessel Documentation Center.

Last reported at 2015-Jul-28 10:33 UTC. Time now 2015-Jul-28 17:48 UTC.
Position N 41°27' W 070°36'.

Length 60 m; draft 2.1 m.

Type: Ship (hazmat cat C). MMSI: 367184740.

Date/timePositionNaut miles runAvg speedWind from/ knotsBaromVisibWave heightAir tempDewpointWater temp
2015-Jul-28 10:33N 41°27' W 070°36'0 0.0
2015-Jul-28 09:33N 41°27' W 070°36'0 0.0
2015-Jul-28 08:27N 41°27' W 070°36'0 0.0
2015-Jul-28 07:33N 41°27' W 070°36'0 0.0
2015-Jul-28 06:21N 41°27' W 070°36'0 0.0
2015-Jul-28 05:15N 41°27' W 070°36'0 0.0
2015-Jul-28 04:33N 41°27' W 070°36'0 0.0
2015-Jul-28 03:06N 41°27' W 070°36'0 0.0
2015-Jul-28 02:33N 41°27' W 070°36'0 0.0
2015-Jul-28 01:33N 41°27' W 070°36'0 0.0
2015-Jul-28 00:27N 41°27' W 070°36'4 4.7
2015-Jul-27 23:33N 41°28' W 070°30'8 7.6
2015-Jul-27 22:33N 41°27' W 070°20'10 9.4
2015-Jul-27 21:33N 41°23' W 070°09'6 6.1
2015-Jul-27 20:31N 41°17' W 070°05'0 0.0
2015-Jul-27 19:31N 41°17' W 070°05'0 0.0
2015-Jul-27 18:13N 41°17' W 070°05'0 0.0
2015-Jul-27 16:28N 41°17' W 070°05'0 0.0
2015-Jul-27 15:25N 41°17' W 070°05'0 0.0
2015-Jul-27 14:31N 41°17' W 070°05'0 0.0
2015-Jul-27 13:19N 41°17' W 070°05'0 0.0
2015-Jul-27 12:31N 41°17' W 070°05'59 1.4
2015-Jul-25 18:33N 41°39' W 071°19'8 8.3
2015-Jul-25 17:34N 41°47' W 071°23'2 0.1
2015-Jul-24 22:29N 41°48' W 071°24'1010.7
2015-Jul-24 21:34N 41°39' W 071°19'2 1.6
2015-Jul-24 20:27N 41°40' W 071°16'0 0.0
2015-Jul-24 19:33N 41°40' W 071°16'0 0.0
2015-Jul-24 18:33N 41°40' W 071°16'0 0.0
2015-Jul-24 17:33N 41°40' W 071°16'0 0.0
2015-Jul-24 16:33N 41°40' W 071°16'0 0.0
2015-Jul-24 15:33N 41°40' W 071°16'2 1.8
2015-Jul-24 14:33N 41°38' W 071°16'10 4.2
2015-Jul-24 12:15N 41°29' W 071°20'0 0.0
2015-Jul-24 11:33N 41°29' W 071°20'0 0.0
2015-Jul-24 10:33N 41°29' W 071°20'0 0.0
2015-Jul-24 09:30N 41°29' W 071°20'0 0.0
2015-Jul-24 08:33N 41°29' W 071°20'0 0.0
2015-Jul-24 07:33N 41°29' W 071°20'0 0.0
2015-Jul-24 06:33N 41°29' W 071°20'0 0.0
2015-Jul-24 05:33N 41°29' W 071°20'0 0.0
2015-Jul-24 04:27N 41°29' W 071°20'0 0.0
2015-Jul-24 03:33N 41°29' W 071°20'0 0.0
2015-Jul-24 02:33N 41°29' W 071°20'0 0.0
2015-Jul-24 01:33N 41°29' W 071°20'0 0.0
2015-Jul-24 00:33N 41°29' W 071°20'0 0.0
2015-Jul-23 23:33N 41°29' W 071°20'0 0.0
2015-Jul-23 22:33N 41°29' W 071°20'0 0.0
2015-Jul-23 21:33N 41°29' W 071°20'0 0.0
2015-Jul-23 20:33N 41°29' W 071°20'0 0.0
2015-Jul-23 19:30N 41°29' W 071°20'0 0.0
2015-Jul-23 18:33N 41°29' W 071°20'0 0.0
2015-Jul-23 17:33N 41°29' W 071°20'0 0.0
2015-Jul-23 16:33N 41°29' W 071°20'0 0.0
2015-Jul-23 15:33N 41°29' W 071°20'0 0.0
2015-Jul-23 14:33N 41°29' W 071°20'0 0.0
2015-Jul-23 13:18N 41°29' W 071°20'0 0.0
2015-Jul-23 12:33N 41°29' W 071°20'6 6.0
2015-Jul-23 11:33N 41°24' W 071°25'1010.3
2015-Jul-23 10:33N 41°16' W 071°34'5 5.0
2015-Jul-23 09:33N 41°11' W 071°35'0 0.0
2015-Jul-23 08:33N 41°11' W 071°35'0 0.0
2015-Jul-23 07:33N 41°11' W 071°35'0 0.0
2015-Jul-23 06:33N 41°11' W 071°35'0 0.0
2015-Jul-23 05:34N 41°11' W 071°35'0 0.0
2015-Jul-23 04:34N 41°11' W 071°35'0 0.0
2015-Jul-23 03:33N 41°11' W 071°35'0 0.0
2015-Jul-23 02:34N 41°11' W 071°35'0 0.0
2015-Jul-23 01:33N 41°11' W 071°35'0 0.0
2015-Jul-23 00:33N 41°11' W 071°35'0 0.0
2015-Jul-22 23:33N 41°11' W 071°35'0 0.0
2015-Jul-22 22:33N 41°11' W 071°35'0 0.0
2015-Jul-22 21:33N 41°11' W 071°35'0 0.0
2015-Jul-22 20:33N 41°11' W 071°35'0 0.0
2015-Jul-22 19:33N 41°11' W 071°35'0 0.0
2015-Jul-22 18:33N 41°11' W 071°35'0 0.0
2015-Jul-22 17:33N 41°11' W 071°35'0 0.0
2015-Jul-22 16:33N 41°11' W 071°35'0 0.0
2015-Jul-22 15:33N 41°11' W 071°35'4 4.4
2015-Jul-22 14:34N 41°15' W 071°35'8 8.4
2015-Jul-22 13:33N 41°17' W 071°24'9 8.8
2015-Jul-22 12:33N 41°19' W 071°12'9 8.7
2015-Jul-22 11:34N 41°21' W 071°01'8 7.9
2015-Jul-22 10:33N 41°24' W 070°51'11 9.2
2015-Jul-22 09:23N 41°29' W 070°39'3 0.9
2015-Jul-22 06:13N 41°27' W 070°36'0 0.0
2015-Jul-22 05:33N 41°27' W 070°36'0 0.0
2015-Jul-22 02:33N 41°27' W 070°36'0 0.0
2015-Jul-22 01:22N 41°27' W 070°36'0 0.0
2015-Jul-22 00:33N 41°27' W 070°36'5 5.4
2015-Jul-21 23:34N 41°28' W 070°29'9 8.3
2015-Jul-21 22:30N 41°27' W 070°17'1010.1
2015-Jul-21 21:34N 41°21' W 070°08'4 3.7
2015-Jul-21 20:32N 41°17' W 070°05'0 0.0
2015-Jul-21 19:32N 41°17' W 070°05'0 0.0
2015-Jul-21 18:29N 41°17' W 070°05'0 0.0
2015-Jul-21 17:32N 41°17' W 070°05'0 0.0
2015-Jul-21 16:32N 41°17' W 070°05'0 0.0
2015-Jul-21 15:32N 41°17' W 070°05'0 0.0
2015-Jul-21 14:32N 41°17' W 070°05'0 0.0
2015-Jul-21 13:32N 41°17' W 070°05'0 0.0
2015-Jul-21 12:33N 41°17' W 070°05'8 8.3
2015-Jul-21 11:33N 41°25' W 070°11'1010.4
2015-Jul-21 10:33N 41°28' W 070°24'9 8.8
2015-Jul-21 09:33N 41°27' W 070°36'0 0.3
2015-Jul-21 08:31N 41°27' W 070°36'0 0.0
2015-Jul-21 07:31N 41°27' W 070°36'0 0.0
2015-Jul-21 06:31N 41°27' W 070°36'0 0.0
2015-Jul-21 05:31N 41°27' W 070°36'0 0.0
2015-Jul-21 04:31N 41°27' W 070°36'0 0.0
2015-Jul-21 01:28N 41°27' W 070°36'0 0.0
2015-Jul-21 00:31N 41°27' W 070°36'0 0.0
2015-Jul-20 23:28N 41°27' W 070°36'0 0.0
2015-Jul-20 13:31N 41°27' W 070°36'0 0.0
2015-Jul-20 12:33N 41°27' W 070°36'17 0.5
2015-Jul-18 23:33N 41°37' W 070°54'7 7.1
2015-Jul-18 22:33N 41°30' W 070°53'9 8.3
2015-Jul-18 21:32N 41°26' W 071°02'8 8.2
2015-Jul-18 20:33N 41°27' W 071°13'9 8.9
2015-Jul-18 19:33N 41°36' W 071°13'4 4.2
2015-Jul-18 18:33N 41°38' W 071°18'9 8.6
2015-Jul-18 17:33N 41°46' W 071°23'3 1.4
2015-Jul-18 15:08N 41°49' W 071°24'0 0.0
2015-Jul-18 14:26N 41°49' W 071°24'0 0.0
2015-Jul-18 13:32N 41°49' W 071°24'0 0.0
2015-Jul-18 12:29N 41°49' W 071°24'0 0.0
2015-Jul-18 11:32N 41°49' W 071°24'  

Dump ship's entire track history